< Cyclone 201912 2019 Season Cyclone 201917 >
Cyclone 201914 (Oma)
General InformationTrack Information on Google MapsDetailed Wind InformationList of All Images || ResourceGoogle EarthGE AnimationAtom FeedGeoJSON
Detalied Best Track (Time Zone = UTC)
Year Month Day Hour Lat. Long. Pressure (hPa) Wind (kt) Class Image Chart
2019 2 11 06 -15.2 160.5 987 0 0 Image --
2019 2 11 12 -14.7 161.5 987 0 0 Image --
2019 2 11 18 -14.2 163.2 987 0 0 Image --
2019 2 12 00 -13.9 164.1 987 30 2 Image --
2019 2 12 06 -13.7 164.9 987 30 2 Image --
2019 2 12 12 -13.5 165.7 987 35 3 Image --
2019 2 12 18 -13.9 166.3 987 45 3 Image --
2019 2 13 00 -14.1 166.1 987 50 4 Image --
2019 2 14 00 -14.1 166.1 987 50 4 Image --
2019 2 14 06 -14.5 165.9 987 50 4 Image --
2019 2 14 18 -15.5 165.0 987 55 4 Image --
2019 2 15 00 -15.0 165.2 987 55 4 Image --
2019 2 15 06 -14.9 165.0 987 55 4 Image --
2019 2 15 12 -15.0 164.7 987 60 4 Image --
2019 2 15 18 -15.2 164.6 987 60 4 Image --
2019 2 16 00 -15.2 164.4 987 55 4 Image --
2019 2 16 06 -15.2 164.0 987 55 4 Image --
2019 2 16 12 -15.2 164.2 987 55 4 Image --
2019 2 16 18 -15.2 164.2 987 50 4 Image --
2019 2 17 00 -15.3 164.2 987 50 4 Image --
2019 2 17 06 -15.8 164.4 987 50 4 Image --
2019 2 17 12 -16.2 164.2 987 50 4 Image --
2019 2 18 00 -17.1 164.1 987 50 4 Image --
2019 2 18 06 -18.2 163.4 983 50 4 Image --
2019 2 19 00 -19.7 162.5 982 60 4 Image --
2019 2 19 06 -19.9 162.3 966 70 5 Image --
2019 2 19 12 -20.2 162.0 974 70 5 Image --
2019 2 19 18 -20.8 161.6 974 70 5 Image --
2019 2 20 00 -21.0 161.4 973 60 4 Image --
2019 2 20 06 -21.3 161.0 974 60 4 Image --
2019 2 20 12 -21.7 160.9 978 55 4 Image --
2019 2 20 18 -22.0 160.5 980 50 4 Image --
2019 2 21 00 -22.5 160.0 981 55 4 Image --
2019 2 21 06 -23.1 159.9 979 50 4 Image --
2019 2 21 12 -23.8 159.7 981 50 4 Image --
2019 2 21 18 -24.5 159.3 984 45 3 Image --
2019 2 22 00 -25.6 159.1 986 45 3 Image --
2019 2 22 06 -26.8 159.4 984 45 3 Image --
2019 2 22 12 -27.0 159.8 984 45 3 Image --
2019 2 22 18 -27.4 160.5 973 50 4 Image --
2019 2 23 00 -28.2 161.2 973 0 0 Image --
2019 2 23 06 -28.1 162.0 973 0 0 Image --
2019 2 24 00 -26.3 163.4 973 0 0 Image --
2019 2 25 00 -23.4 166.0 973 0 0 Image --
2019 2 26 00 -20.0 167.5 973 0 0 Image --
< Cyclone 201912 2019 Season Cyclone 201917 >

Help